Home   Weather   France   Lille   Past weeks
Flag for France

Past Weather in Lille, Hauts-de-France, France — Yesterday and Last 2 Weeks

Currently: 41 °F. Fog. (Weather station: Lille Airport, France). See more current weather

Past Weather in Lille — Graph

°F

Lille Temperature Yesterday

Maximum temperature yesterday: 52 °F (at 2:30 pm)
Minimum temperature yesterday: 34 °F (at 6:30 am)
Average temperature yesterday: 43 °F

High & Low Weather Summary for the Past Weeks

 TemperatureHumidityPressure
High57 °F (Feb 22, 1:00 pm)100% (Feb 19, 8:30 am)30.42 "Hg (Feb 19, 8:30 am)
Low34 °F (Feb 28, 3:30 am)58% (Mar 4, 3:30 pm)28.82 "Hg (Feb 22, 4:00 pm)
Average45 °F88%29.72 "Hg
* Reported Feb 19 8:00 am — Mar 5 8:00 am, Lille. Weather by CustomWeather, © 2024

Note: Actual official high and low records may vary slightly from our data, if they occured in-between our weather recording intervals... More about our weather records

Lille Weather History for the Previous 24 Hours

Scroll right to see more
 ConditionsComfort  
Time TempWeatherWind HumidityBarometerVisibility
8:00 am
Tue, Mar 5
41 °FDrizzle. Broken clouds.6 mph93%29.89 "Hg4 mi
7:30 am41 °FLight rain. More clouds than sun.6 mph93%29.89 "Hg5 mi
7:00 am41 °FLight rain. Passing clouds.6 mph93%29.86 "HgN/A
6:30 am39 °FDrizzle. Overcast.6 mph93%29.86 "HgN/A
6:00 am39 °FMostly cloudy.5 mph93%29.86 "HgN/A
5:30 am37 °FClear.6 mph93%29.86 "Hg10 mi
5:00 am37 °FClear.3 mph93%29.86 "Hg10 mi
4:30 am37 °FClear.3 mph93%29.86 "Hg10 mi
4:00 am37 °FClear.2 mph93%29.86 "Hg10 mi
3:30 am37 °FClear.3 mph93%29.86 "Hg10 mi
3:00 am37 °FClear.3 mph93%29.86 "Hg10 mi
2:30 am39 °FPassing clouds.5 mph87%29.86 "HgN/A
2:00 am39 °FOvercast.5 mph87%29.86 "HgN/A
1:30 am39 °FClear.6 mph87%29.86 "Hg10 mi
1:00 am37 °FClear.7 mph93%29.86 "Hg10 mi
12:30 am39 °FClear.6 mph87%29.86 "Hg10 mi
12:00 am39 °FClear.6 mph87%29.86 "Hg10 mi
11:30 pm
Mon, Mar 4
39 °FClear.6 mph87%29.86 "Hg10 mi
11:00 pm39 °FClear.6 mph87%29.86 "Hg10 mi
10:30 pm39 °FClear.6 mph87%29.86 "Hg10 mi
10:00 pm41 °FClear.6 mph81%29.86 "Hg10 mi
9:00 pm43 °FClear.6 mph81%29.86 "Hg10 mi
8:00 pm43 °FClear.5 mph81%29.86 "Hg10 mi
7:30 pm43 °FClear.5 mph81%29.86 "Hg10 mi
7:00 pm45 °FClear.5 mph76%29.86 "Hg10 mi
6:30 pm46 °FSunny.5 mph76%29.86 "Hg10 mi
6:00 pm48 °FSunny.5 mph71%29.86 "Hg10 mi
5:30 pm50 °FSunny.6 mph62%29.86 "Hg10 mi
5:00 pm50 °FSunny.7 mph67%29.86 "Hg10 mi
4:30 pm52 °FSunny.7 mph62%29.86 "Hg10 mi
4:00 pm52 °FScattered clouds.8 mph58%29.86 "HgN/A
3:30 pm52 °FScattered clouds.6 mph58%29.86 "HgN/A
3:00 pm52 °FPartly sunny.9 mph62%29.86 "HgN/A
2:30 pm52 °FPartly sunny.8 mph62%29.89 "HgN/A
2:00 pm50 °FPartly sunny.9 mph67%29.89 "HgN/A
1:30 pm50 °FPartly sunny.8 mph67%29.89 "HgN/A
1:00 pm50 °FPartly sunny.8 mph67%29.89 "HgN/A
12:30 pm50 °FBroken clouds.8 mph67%29.89 "HgN/A
12:00 pm50 °FBroken clouds.6 mph71%29.89 "HgN/A
11:30 am50 °FPassing clouds.6 mph71%29.89 "HgN/A
11:00 am48 °FPassing clouds.5 mph82%29.89 "HgN/A
10:30 am46 °FSunny.3 mph87%29.92 "Hg10 mi
10:00 am45 °FSunny.2 mph93%29.89 "Hg10 mi
9:30 am41 °FSunny.2 mph100%29.89 "Hg10 mi
9:00 am37 °FClear.2 mph100%29.89 "Hg4 mi
Weather by CustomWeather, © 2024

See weather overview